• Join FlightAware (Why Join?)
  • Login
  • US Flag 
07:22PM EDT


 

Airport Tracker/Info


-or-


 

Live Flight TrackerFlight Track Log ✈ ZK-NGM ✈ 17-May-2012 ✈ NZAA / AKL - NZCH / CHC

Flight Track Log - Related Links

Times and Time Zones

All times are in EDT time to prevent confusion due to time zone crossing. See the ZK-NGM flight status page for this flight to view local times or setup timezone preferences in your user account.

Time Position Orientation Groundspeed Altitude Reporting Facility
EDT Latitude Longitude Course Direction KTS MPH feet Rate Location/Type
02:39PM -37.0700 174.7721 194° South  Level Estimated
02:40PM -37.1861 174.7352 194° South  Level Estimated
02:41PM -37.3022 174.6982 194° South  Level Estimated
02:42PM -37.4184 174.6611 194° South  Level Estimated
02:43PM -37.5345 174.6239 194° South  Level Estimated
02:44PM -37.6505 174.5866 194° South  Level Estimated
02:45PM -37.7666 174.5492 194° South  Level Estimated
02:46PM -37.8827 174.5116 194° South  Level Estimated
02:47PM -37.9987 174.4739 194° South  Level Estimated
02:48PM -38.1148 174.4362 194° South  Level Estimated
02:49PM -38.2308 174.3983 194° South  Level Estimated
02:50PM -38.3468 174.3602 194° South  Level Estimated
02:51PM -38.4628 174.3221 194° South  Level Estimated
02:52PM -38.5788 174.2838 194° South  Level Estimated
02:53PM -38.6948 174.2454 195° South  Level Estimated
02:54PM -38.8107 174.2068 195° South  Level Estimated
02:55PM -38.9267 174.1682 195° South  Level Estimated
02:56PM -39.0426 174.1294 195° South  Level Estimated
02:57PM -39.1585 174.0905 195° South  Level Estimated
02:58PM -39.2744 174.0515 195° South  Level Estimated
02:59PM -39.3904 174.0123 195° South  Level Estimated
03:00PM -39.5062 173.9730 195° South  Level Estimated
03:01PM -39.6221 173.9336 195° South  Level Estimated
03:02PM -39.7380 173.8940 195° South  Level Estimated
03:03PM -39.8538 173.8544 195° South  Level Estimated
03:04PM -39.9696 173.8145 195° South  Level Estimated
03:05PM -40.0855 173.7746 195° South  Level Estimated
03:06PM -40.2013 173.7345 195° South  Level Estimated
03:07PM -40.3171 173.6942 195° South  Level Estimated
03:08PM -40.4328 173.6539 195° South  Level Estimated
03:09PM -40.5486 173.6133 195° South  Level Estimated
03:10PM -40.6643 173.5727 195° South  Level Estimated
03:11PM -40.7801 173.5319 195° South  Level Estimated
03:12PM -40.8958 173.4910 195° South  Level Estimated
03:13PM -41.0115 173.4499 195° South  Level Estimated
03:14PM -41.1272 173.4087 195° South  Level Estimated
03:15PM -41.2429 173.3673 195° South  Level Estimated
03:16PM -41.3585 173.3258 195° South  Level Estimated
03:17PM -41.4742 173.2841 195° South  Level Estimated
03:18PM -41.5898 173.2423 195° South  Level Estimated
03:19PM -41.7054 173.2004 195° South  Level Estimated
03:20PM -41.8210 173.1582 195° South  Level Estimated
03:21PM -41.9366 173.1160 195° South  Level Estimated
03:22PM -42.0522 173.0736 195° South  Level Estimated
03:23PM -42.1678 173.0310 195° South  Level Estimated
03:24PM -42.2833 172.9883 195° South  Level Estimated
03:25PM -42.3988 172.9454 195° South  Level Estimated
03:26PM -42.5143 172.9023 195° South  Level Estimated
03:27PM -42.6298 172.8591 195° South  Level Estimated
03:28PM -42.7453 172.8158 195° South  Level Estimated
03:29PM -42.8530 172.7751 195° South  Level Estimated
03:30PM -42.9608 172.7344 196° South  Level Estimated
03:31PM -43.0685 172.6935 196° South  Level Estimated
03:32PM -43.1762 172.6524 196° South  Level Estimated
03:33PM -43.2839 172.6112 196° South  Level Estimated
03:34PM -43.3916 172.5699 196° South  Level Estimated
03:35PM -43.4993 172.5284 16° North  Level Estimated
03:36PM -43.3916 172.5699 196° South  Level Estimated
03:37PM -43.4993 172.5284 16° North  Level Estimated
03:38PM -43.3916 172.5699 196° South  Level Estimated
03:39PM -43.4993 172.5284 16° North  Level Estimated
03:40PM -43.3916 172.5699 196° South  Level Estimated
03:41PM -43.4993 172.5284 16° North  Level Estimated
03:42PM -43.3916 172.5699 196° South  Level Estimated
03:43PM -43.4993 172.5284 16° North  Level Estimated
03:44PM -43.3916 172.5699 196° South  Level Estimated
03:45PM -43.4993 172.5284 16° North  Level Estimated
03:46PM -43.3916 172.5699 196° South  Level Estimated
03:47PM -43.4993 172.5284 16° North  Level Estimated
03:48PM -43.3916 172.5699 196° South  Level Estimated
03:49PM -43.4993 172.5284 196° South  Level Estimated